Time;durP1;ratioP1;P1;durP2;ratioP2;P2;SDS_P1;SDS_P2;PMS_P1;PMS_P2;Temp;Humidity;BMP_temperature;BMP_pressure;BME280_temperature;BME280_humidity;BME280_pressure;Samples;Min_cycle;Max_cycle;Signal;HPM_P1;HPM_P2
2024/03/27 00:04:55;;;;;;;8.55;5.32;;;6.40;99.90;;;;;;12507012;28;20453;-80
2024/03/27 00:10:56;;;;;;;8.88;5.60;;;6.30;99.90;;;;;;12523385;28;20072;-80
2024/03/27 00:16:57;;;;;;;8.68;5.28;;;6.40;99.90;;;;;;12527181;28;20056;-82
2024/03/27 00:22:58;;;;;;;9.05;5.43;;;6.40;99.90;;;;;;12509769;28;20060;-81
2024/03/27 00:28:59;;;;;;;8.40;5.35;;;6.50;99.90;;;;;;12523968;28;20048;-80
2024/03/27 00:35:01;;;;;;;8.88;4.93;;;6.60;99.90;;;;;;12528324;28;20053;-80
2024/03/27 00:41:03;;;;;;;9.60;5.60;;;6.60;99.90;;;;;;12528108;28;20143;-81
2024/03/27 00:47:04;;;;;;;8.60;5.05;;;6.60;99.90;;;;;;12501657;28;20049;-79
2024/03/27 00:53:05;;;;;;;7.57;4.35;;;6.60;99.90;;;;;;12499063;28;20045;-80
2024/03/27 00:59:06;;;;;;;8.80;4.72;;;6.70;99.90;;;;;;12517277;28;20052;-81
2024/03/27 01:05:07;;;;;;;8.38;3.97;;;6.70;99.90;;;;;;12515350;28;20131;-88
2024/03/27 01:11:08;;;;;;;7.85;4.40;;;7.00;99.90;;;;;;12501283;28;20055;-87
2024/03/27 01:17:09;;;;;;;9.55;5.00;;;7.10;99.90;;;;;;12493345;28;20049;-87
2024/03/27 01:23:10;;;;;;;9.95;5.80;;;7.00;99.90;;;;;;12488950;28;20080;-86
2024/03/27 01:29:11;;;;;;;8.20;4.65;;;6.80;99.90;;;;;;12497032;28;20489;-87
2024/03/27 01:35:13;;;;;;;11.77;5.28;;;6.70;99.90;;;;;;12516173;28;20057;-86
2024/03/27 01:41:13;;;;;;;7.60;4.85;;;6.60;99.90;;;;;;12509272;28;20064;-83
2024/03/27 01:47:15;;;;;;;10.30;4.95;;;6.60;99.90;;;;;;12491082;28;20040;-87
2024/03/27 01:53:16;;;;;;;6.22;4.03;;;6.60;99.90;;;;;;12506954;28;20041;-87
2024/03/27 01:59:17;;;;;;;7.50;5.00;;;6.70;99.90;;;;;;12504607;28;20524;-88
2024/03/27 02:05:18;;;;;;;8.15;4.90;;;6.80;99.90;;;;;;12517147;28;20417;-88
2024/03/27 02:11:19;;;;;;;9.88;5.10;;;6.60;99.90;;;;;;12502244;28;20057;-86
2024/03/27 02:17:20;;;;;;;9.45;5.25;;;6.40;99.90;;;;;;12497838;28;20060;-87
2024/03/27 02:23:25;;;;;;;7.97;4.90;;;6.20;99.90;;;;;;12503711;28;20416;-88
2024/03/27 02:29:26;;;;;;;8.48;4.40;;;6.10;99.90;;;;;;12500261;28;20103;-86
2024/03/27 02:35:26;;;;;;;8.13;4.90;;;6.10;99.90;;;;;;12494556;28;20174;-88
2024/03/27 02:41:27;;;;;;;8.90;5.15;;;6.20;99.90;;;;;;12490223;28;20060;-86
2024/03/27 02:47:28;;;;;;;8.30;4.63;;;6.00;99.90;;;;;;12493786;28;20049;-86
2024/03/27 02:53:29;;;;;;;8.20;4.50;;;6.10;99.90;;;;;;12507011;28;20065;-84
2024/03/27 02:59:30;;;;;;;9.07;3.97;;;6.00;99.90;;;;;;12563983;28;20101;-84
2024/03/27 03:05:31;;;;;;;7.63;4.35;;;6.00;99.90;;;;;;12544977;28;20049;-87
2024/03/27 03:11:33;;;;;;;8.75;4.32;;;6.00;99.90;;;;;;12553615;28;20049;-83
2024/03/27 03:17:35;;;;;;;8.05;4.28;;;6.20;99.90;;;;;;12563128;28;20060;-86
2024/03/27 03:23:36;;;;;;;6.25;3.70;;;6.30;99.90;;;;;;12567089;28;20098;-87
2024/03/27 03:29:36;;;;;;;8.68;4.50;;;6.20;99.90;;;;;;12526286;28;20051;-80
2024/03/27 03:35:38;;;;;;;7.90;4.55;;;6.20;99.90;;;;;;12527377;28;20459;-80
2024/03/27 03:41:38;;;;;;;8.18;3.88;;;6.20;99.90;;;;;;12528699;28;20059;-80
2024/03/27 03:47:39;;;;;;;7.07;4.10;;;6.10;99.90;;;;;;12533387;28;20119;-81
2024/03/27 03:53:40;;;;;;;8.35;4.22;;;6.10;99.90;;;;;;12515366;28;20045;-80
2024/03/27 03:59:41;;;;;;;7.60;4.07;;;6.20;99.90;;;;;;12518828;28;20556;-80
2024/03/27 04:05:42;;;;;;;7.10;3.60;;;6.30;99.90;;;;;;12531003;28;20052;-81
2024/03/27 04:11:43;;;;;;;6.45;3.70;;;6.40;99.90;;;;;;12527194;28;20473;-80
2024/03/27 04:17:44;;;;;;;6.45;3.75;;;6.60;99.90;;;;;;12533312;28;20053;-80
2024/03/27 04:23:45;;;;;;;7.45;4.72;;;6.60;99.90;;;;;;12525945;28;20088;-80
2024/03/27 04:29:46;;;;;;;7.28;3.92;;;6.50;99.90;;;;;;12514701;28;20090;-81
2024/03/27 04:35:47;;;;;;;6.32;3.30;;;6.50;99.90;;;;;;12516429;28;20075;-80
2024/03/27 04:41:48;;;;;;;6.88;4.32;;;6.60;99.90;;;;;;12510434;28;20060;-79
2024/03/27 04:47:49;;;;;;;6.53;3.75;;;6.50;99.90;;;;;;12527459;28;20050;-81
2024/03/27 04:53:51;;;;;;;6.95;3.85;;;6.50;99.90;;;;;;12536793;28;20053;-80
2024/03/27 04:59:52;;;;;;;6.05;4.13;;;6.50;99.90;;;;;;12534324;28;20574;-80
2024/03/27 05:05:53;;;;;;;8.30;4.10;;;6.40;99.90;;;;;;12536548;28;20109;-80
2024/03/27 05:11:54;;;;;;;5.63;3.67;;;6.50;99.90;;;;;;12520748;28;20538;-83
2024/03/27 05:17:54;;;;;;;9.52;4.13;;;6.30;99.90;;;;;;12507860;28;20114;-79
2024/03/27 05:23:55;;;;;;;5.72;3.78;;;6.20;99.90;;;;;;12558911;28;20126;-80
2024/03/27 05:29:56;;;;;;;7.43;4.18;;;6.00;99.90;;;;;;12519521;28;20060;-79
2024/03/27 05:35:57;;;;;;;6.32;3.92;;;5.90;99.90;;;;;;12520568;28;20421;-80
2024/03/27 05:41:58;;;;;;;7.28;3.63;;;5.90;99.90;;;;;;12514265;28;20049;-80
2024/03/27 05:47:59;;;;;;;8.55;3.50;;;5.80;99.90;;;;;;12506328;28;20081;-82
2024/03/27 05:54:00;;;;;;;5.57;3.50;;;5.90;99.90;;;;;;12503349;28;20497;-82
2024/03/27 06:00:01;;;;;;;5.68;3.28;;;6.20;99.90;;;;;;12515947;28;20057;-82
2024/03/27 06:06:02;;;;;;;4.45;2.75;;;6.50;99.90;;;;;;12516868;28;20246;-82
2024/03/27 06:12:03;;;;;;;5.53;3.50;;;6.80;99.90;;;;;;12513810;28;20052;-82
2024/03/27 06:18:04;;;;;;;5.25;3.00;;;7.20;99.90;;;;;;12531025;28;20060;-81
2024/03/27 06:24:05;;;;;;;5.45;3.45;;;7.60;99.90;;;;;;12522970;28;20053;-80
2024/03/27 06:30:08;;;;;;;4.97;3.17;;;8.20;99.90;;;;;;12536970;28;20571;-81
2024/03/27 06:36:09;;;;;;;5.78;3.45;;;8.50;99.90;;;;;;12514550;28;20045;-81
2024/03/27 06:42:10;;;;;;;5.38;3.67;;;8.50;99.90;;;;;;12519364;28;20053;-79
2024/03/27 06:48:11;;;;;;;5.85;3.83;;;8.90;99.90;;;;;;12524935;28;20044;-80
2024/03/27 06:54:12;;;;;;;6.03;3.83;;;8.80;99.90;;;;;;12533899;28;20049;-82
2024/03/27 07:00:14;;;;;;;5.97;4.03;;;8.90;99.90;;;;;;12501493;28;20057;-87
2024/03/27 07:06:15;;;;;;;6.50;3.45;;;9.00;99.90;;;;;;12504422;28;20048;-87
2024/03/27 07:12:16;;;;;;;5.90;3.38;;;9.30;99.90;;;;;;12501169;28;20104;-88
2024/03/27 07:18:19;;;;;;;9.80;5.28;;;9.70;99.90;;;;;;12510067;28;20080;-87
2024/03/27 07:24:19;;;;;;;5.93;4.40;;;9.80;99.90;;;;;;12499912;28;20057;-89
2024/03/27 07:30:20;;;;;;;6.50;4.72;;;10.00;99.90;;;;;;12485070;28;20052;-88
2024/03/27 07:36:21;;;;;;;7.15;4.80;;;10.20;99.90;;;;;;12514166;28;20152;-90
2024/03/27 07:42:22;;;;;;;7.38;4.32;;;10.30;99.90;;;;;;12496239;28;20154;-89
2024/03/27 07:48:24;;;;;;;9.85;4.75;;;10.40;99.90;;;;;;12503433;28;20057;-87
2024/03/27 07:54:25;;;;;;;6.65;4.45;;;10.50;99.90;;;;;;12503711;28;20459;-85
2024/03/27 08:00:26;;;;;;;7.65;5.50;;;10.70;99.90;;;;;;12503252;28;20087;-88
2024/03/27 08:06:27;;;;;;;6.90;4.10;;;11.00;99.90;;;;;;12505242;28;20540;-83
2024/03/27 08:12:28;;;;;;;7.50;4.18;;;11.10;99.90;;;;;;12496784;28;20053;-83
2024/03/27 08:18:50;;;;;;;7.30;4.57;;;11.50;99.90;;;;;;12496695;28;20060;-81
2024/03/27 08:24:51;;;;;;;5.50;3.85;;;11.90;99.90;;;;;;12515592;28;20065;-86
2024/03/27 08:30:52;;;;;;;4.68;3.78;;;12.00;99.90;;;;;;12529286;28;20049;-82
2024/03/27 08:36:55;;;;;;;5.97;3.88;;;12.20;99.90;;;;;;12533599;28;20120;-83
2024/03/27 08:42:56;;;;;;;5.00;3.25;;;12.50;99.90;;;;;;12525284;28;20638;-82
2024/03/27 08:48:57;;;;;;;5.13;3.30;;;12.80;99.90;;;;;;12530246;28;20052;-82
2024/03/27 08:54:58;;;;;;;4.90;3.33;;;12.90;99.90;;;;;;12536075;28;20053;-83
2024/03/27 09:00:59;;;;;;;5.30;3.50;;;13.10;99.90;;;;;;12529771;28;20513;-83
2024/03/27 09:07:00;;;;;;;5.53;4.03;;;13.10;99.90;;;;;;12514351;28;20036;-82
2024/03/27 09:13:01;;;;;;;6.13;4.20;;;13.00;99.90;;;;;;12516182;28;20079;-83
2024/03/27 09:19:02;;;;;;;7.50;4.43;;;13.30;99.90;;;;;;12518299;28;20052;-83
2024/03/27 09:25:06;;;;;;;4.50;3.38;;;13.50;99.90;;;;;;12515181;28;20801;-82
2024/03/27 09:31:07;;;;;;;5.35;3.45;;;13.50;99.90;;;;;;12524587;28;20064;-82
2024/03/27 09:37:08;;;;;;;5.70;3.60;;;13.50;99.90;;;;;;12509515;28;20537;-83
2024/03/27 09:43:11;;;;;;;4.82;3.45;;;13.80;99.90;;;;;;12497141;28;20045;-82
2024/03/27 09:49:14;;;;;;;5.28;3.30;;;14.10;99.90;;;;;;12540895;28;20044;-83
2024/03/27 09:55:18;;;;;;;5.57;3.60;;;14.50;99.90;;;;;;12528353;28;20056;-83
2024/03/27 10:01:19;;;;;;;4.38;3.33;;;14.60;99.90;;;;;;12514649;28;20083;-85
2024/03/27 10:07:21;;;;;;;6.38;3.30;;;15.00;99.90;;;;;;12535137;28;20056;-84
2024/03/27 10:13:25;;;;;;;5.28;3.60;;;15.10;99.90;;;;;;12504932;28;20049;-84
2024/03/27 10:19:25;;;;;;;4.32;3.22;;;15.00;99.90;;;;;;12492043;28;20061;-84
2024/03/27 10:25:27;;;;;;;5.30;4.03;;;15.00;99.90;;;;;;12495343;28;20056;-84
2024/03/27 10:31:28;;;;;;;5.65;4.28;;;14.90;99.90;;;;;;12496139;28;20057;-84
2024/03/27 10:37:28;;;;;;;5.80;4.20;;;14.70;99.90;;;;;;12514841;28;20566;-87
2024/03/27 10:43:37;;;;;;;4.65;3.55;;;15.00;99.90;;;;;;12515509;28;20060;-86
2024/03/27 10:49:41;;;;;;;5.10;4.20;;;15.10;99.90;;;;;;12527947;28;20048;-87
2024/03/27 10:55:41;;;;;;;9.10;4.90;;;15.30;99.90;;;;;;12523474;28;20075;-87
2024/03/27 11:01:42;;;;;;;5.75;4.07;;;15.50;99.90;;;;;;12469675;28;20100;-89
2024/03/27 11:07:44;;;;;;;6.43;4.10;;;16.00;99.90;;;;;;12471320;28;20071;-89
2024/03/27 11:13:45;;;;;;;6.40;4.72;;;15.60;99.90;;;;;;12456817;28;20041;-88
2024/03/27 11:19:47;;;;;;;5.75;4.45;;;15.50;99.90;;;;;;12455908;28;20368;-87
2024/03/27 11:25:55;;;;;;;5.97;3.97;;;15.70;99.90;;;;;;12454345;28;20041;-88
2024/03/27 11:32:07;;;;;;;7.35;4.07;;;15.80;99.90;;;;;;12448576;28;20410;-89
2024/03/27 11:38:08;;;;;;;4.95;4.00;;;15.60;99.90;;;;;;12464870;28;20076;-87
2024/03/27 11:44:08;;;;;;;5.32;3.60;;;15.70;99.90;;;;;;12467429;28;20060;-88
2024/03/27 11:50:09;;;;;;;3.75;3.05;;;15.40;99.90;;;;;;12461199;28;20045;-87
2024/03/27 11:56:10;;;;;;;3.92;2.90;;;15.50;99.90;;;;;;12468261;28;20087;-89
2024/03/27 12:02:11;;;;;;;3.92;2.97;;;15.80;99.90;;;;;;12523382;28;20057;-90
2024/03/27 12:08:12;;;;;;;9.00;4.05;;;16.10;99.90;;;;;;12518559;28;20110;-87
2024/03/27 12:14:18;;;;;;;3.92;3.50;;;16.10;99.90;;;;;;12521128;28;20074;-87
2024/03/27 12:20:19;;;;;;;6.32;3.25;;;16.00;99.90;;;;;;12529892;28;20060;-88
2024/03/27 12:26:22;;;;;;;6.40;3.38;;;16.60;99.90;;;;;;12508737;28;20425;-89
2024/03/27 12:32:27;;;;;;;5.35;3.33;;;16.70;99.90;;;;;;12539253;28;20067;-86
2024/03/27 12:38:28;;;;;;;4.88;3.50;;;16.10;99.90;;;;;;12517255;28;20053;-88
2024/03/27 12:44:31;;;;;;;5.53;3.65;;;16.10;99.90;;;;;;12513785;28;20056;-89
2024/03/27 12:50:32;;;;;;;4.85;3.20;;;16.30;99.90;;;;;;12537081;28;20103;-87
2024/03/27 12:56:33;;;;;;;4.68;3.65;;;16.20;99.90;;;;;;12526949;28;20079;-86
2024/03/27 13:02:35;;;;;;;6.65;3.97;;;16.40;99.90;;;;;;12469452;28;20069;-82
2024/03/27 13:08:36;;;;;;;7.05;3.50;;;16.30;99.90;;;;;;12474528;28;20298;-84
2024/03/27 13:14:37;;;;;;;5.88;3.90;;;16.40;99.90;;;;;;12473470;28;20477;-82
2024/03/27 13:20:37;;;;;;;5.70;4.25;;;16.20;99.90;;;;;;12458651;28;20057;-81
2024/03/27 13:26:39;;;;;;;4.95;3.92;;;16.50;99.90;;;;;;12467230;28;20049;-82
2024/03/27 13:32:40;;;;;;;4.50;3.53;;;16.10;99.90;;;;;;12464251;28;20056;-82
2024/03/27 13:38:41;;;;;;;5.22;4.18;;;16.00;99.90;;;;;;12485310;28;20057;-82
2024/03/27 13:44:42;;;;;;;4.88;4.40;;;15.70;99.90;;;;;;12487429;28;20061;-81
2024/03/27 13:50:43;;;;;;;4.55;4.10;;;15.90;99.90;;;;;;12475280;28;20524;-82
2024/03/27 13:56:44;;;;;;;5.45;3.75;;;15.70;99.90;;;;;;12474053;28;20321;-81
2024/03/27 14:02:45;;;;;;;5.75;3.55;;;15.80;99.90;;;;;;12542739;28;20106;-82
2024/03/27 14:08:46;;;;;;;5.15;3.85;;;16.10;99.90;;;;;;12525611;28;20049;-87
2024/03/27 14:14:47;;;;;;;4.47;4.05;;;16.00;99.90;;;;;;12514734;28;20053;-89
2024/03/27 14:20:48;;;;;;;4.80;4.30;;;15.90;99.90;;;;;;12517269;28;20055;-89
2024/03/27 14:26:49;;;;;;;7.43;5.35;;;15.90;99.90;;;;;;12522595;28;20383;-89
2024/03/27 14:32:50;;;;;;;5.28;4.78;;;15.40;99.90;;;;;;12498175;28;20493;-84
2024/03/27 14:38:51;;;;;;;8.75;5.43;;;15.20;99.90;;;;;;12520170;28;20053;-84
2024/03/27 14:44:52;;;;;;;6.68;5.90;;;15.10;99.90;;;;;;12520451;28;20045;-85
2024/03/27 14:50:53;;;;;;;7.93;5.43;;;14.80;99.90;;;;;;12503239;28;20049;-87
2024/03/27 14:56:54;;;;;;;7.97;5.68;;;14.60;99.90;;;;;;12502640;28;20118;-84
2024/03/27 15:02:56;;;;;;;6.53;5.68;;;14.60;99.90;;;;;;12520936;28;20136;-87
2024/03/27 15:08:56;;;;;;;8.10;6.80;;;14.70;99.90;;;;;;12535299;28;20057;-84
2024/03/27 15:14:57;;;;;;;10.20;6.80;;;14.50;99.90;;;;;;12501025;28;20675;-83
2024/03/27 15:20:58;;;;;;;9.25;7.13;;;14.50;99.90;;;;;;12512268;28;20053;-88
2024/03/27 15:26:59;;;;;;;7.00;6.30;;;14.40;99.90;;;;;;12552071;28;20049;-84
2024/03/27 15:33:01;;;;;;;6.80;6.10;;;14.10;99.90;;;;;;12626826;22;20083;-37
2024/03/27 15:39:05;;;;;;;11.15;6.35;;;13.90;99.90;;;;;;12637892;28;20499;-39
2024/03/27 15:45:07;;;;;;;;;;;13.50;99.90;;;;;;12632395;28;20050;-36
2024/03/27 15:51:07;;;;;;;8.70;6.43;;;13.30;99.90;;;;;;12630900;28;19935;-36
2024/03/27 15:57:09;;;;;;;8.90;7.25;;;13.30;99.90;;;;;;12609922;28;20093;-36
2024/03/27 16:03:10;;;;;;;8.40;7.00;;;13.10;99.90;;;;;;12634827;28;20048;-36
2024/03/27 16:09:11;;;;;;;7.88;6.35;;;13.10;99.90;;;;;;12620785;28;20040;-36
2024/03/27 16:15:14;;;;;;;8.23;6.20;;;13.00;99.90;;;;;;12597101;28;20053;-36
2024/03/27 16:21:15;;;;;;;8.30;5.60;;;12.90;99.90;;;;;;12633059;28;20498;-36
2024/03/27 16:27:16;;;;;;;5.80;4.97;;;12.90;99.90;;;;;;12628564;28;20055;-36
2024/03/27 16:33:17;;;;;;;5.45;4.70;;;12.80;99.90;;;;;;12646119;28;20066;-36
2024/03/27 16:39:18;;;;;;;5.13;4.63;;;12.70;99.90;;;;;;12654288;28;20518;-37
2024/03/27 16:45:19;;;;;;;5.93;4.40;;;12.50;99.90;;;;;;12663856;28;20055;-36
2024/03/27 16:51:20;;;;;;;5.60;4.35;;;12.50;99.90;;;;;;12656701;28;20445;-36
2024/03/27 16:57:21;;;;;;;6.82;5.00;;;12.50;99.90;;;;;;12657406;28;20047;-36
2024/03/27 17:03:21;;;;;;;5.78;4.88;;;12.40;99.90;;;;;;12653478;28;20427;-36
2024/03/27 17:09:23;;;;;;;6.35;5.30;;;12.30;99.90;;;;;;12648467;28;20517;-36
2024/03/27 17:15:23;;;;;;;7.13;4.65;;;12.20;99.90;;;;;;12612433;28;20051;-36
2024/03/27 17:21:24;;;;;;;6.50;4.88;;;12.00;99.90;;;;;;12637256;28;20427;-36
2024/03/27 17:27:26;;;;;;;5.82;4.03;;;12.00;99.90;;;;;;12632709;28;20100;-36
2024/03/27 17:33:27;;;;;;;5.30;4.20;;;11.90;99.90;;;;;;12631364;28;20086;-36
2024/03/27 17:39:29;;;;;;;5.93;4.47;;;11.80;99.90;;;;;;12650155;27;20055;-36
2024/03/27 17:45:30;;;;;;;6.50;5.20;;;11.80;99.90;;;;;;12635367;28;20052;-36
2024/03/27 17:51:31;;;;;;;6.00;4.25;;;11.70;99.90;;;;;;12642859;28;20584;-36
2024/03/27 17:57:32;;;;;;;6.60;4.80;;;11.60;99.90;;;;;;12657213;28;20483;-36
2024/03/27 18:03:33;;;;;;;6.70;4.88;;;11.40;99.90;;;;;;12657463;28;20057;-36
2024/03/27 18:09:34;;;;;;;6.05;4.60;;;11.40;99.90;;;;;;12647990;28;20059;-35
2024/03/27 18:15:39;;;;;;;7.13;5.18;;;11.40;99.90;;;;;;12639797;28;20052;-36
2024/03/27 18:21:39;;;;;;;9.18;5.18;;;11.30;99.90;;;;;;12645118;28;20069;-36
2024/03/27 18:27:40;;;;;;;9.38;4.93;;;11.30;99.90;;;;;;12664492;28;20069;-36
2024/03/27 18:33:41;;;;;;;9.18;5.05;;;11.10;99.90;;;;;;12625108;28;20052;-36
2024/03/27 18:39:42;;;;;;;8.35;5.35;;;11.00;99.90;;;;;;12624507;28;20392;-36
2024/03/27 18:45:45;;;;;;;6.80;4.90;;;10.80;99.90;;;;;;12648054;28;20077;-35
2024/03/27 18:51:45;;;;;;;7.43;4.78;;;10.80;99.90;;;;;;12639190;28;20047;-36
2024/03/27 18:57:49;;;;;;;7.13;4.53;;;10.70;99.90;;;;;;12631304;28;20048;-36
2024/03/27 19:03:49;;;;;;;7.00;4.50;;;10.60;99.90;;;;;;12632074;28;20047;-35
2024/03/27 19:09:50;;;;;;;8.02;5.43;;;10.50;99.90;;;;;;12634314;28;20048;-36
2024/03/27 19:15:51;;;;;;;8.27;4.80;;;10.40;99.90;;;;;;12624510;28;20059;-36
2024/03/27 19:21:52;;;;;;;7.93;5.07;;;10.40;99.90;;;;;;12623471;28;20407;-36
2024/03/27 19:27:53;;;;;;;10.18;5.70;;;10.30;99.90;;;;;;12612830;28;20568;-35
2024/03/27 19:33:54;;;;;;;10.05;5.97;;;10.20;99.90;;;;;;12642993;28;20082;-36
2024/03/27 19:39:57;;;;;;;9.40;5.68;;;10.20;99.90;;;;;;12631002;28;20058;-36
2024/03/27 19:45:58;;;;;;;9.32;5.70;;;10.20;99.90;;;;;;12625512;28;20051;-35
2024/03/27 19:51:59;;;;;;;10.15;6.18;;;10.10;99.90;;;;;;12641991;28;20531;-36
2024/03/27 19:57:59;;;;;;;9.00;5.80;;;10.10;99.90;;;;;;12614960;28;20534;-36
2024/03/27 20:04:00;;;;;;;9.95;5.93;;;10.10;99.90;;;;;;12640450;28;20484;-36
2024/03/27 20:10:03;;;;;;;11.23;6.43;;;10.10;99.90;;;;;;12610379;28;20048;-35
2024/03/27 20:16:08;;;;;;;11.25;7.38;;;10.20;99.90;;;;;;12631991;28;20056;-36
2024/03/27 20:22:09;;;;;;;12.52;7.68;;;9.90;99.90;;;;;;12635488;28;20047;-36
2024/03/27 20:28:10;;;;;;;14.07;8.13;;;9.80;99.90;;;;;;12634676;28;20809;-36
2024/03/27 20:34:11;;;;;;;13.07;7.57;;;9.90;99.90;;;;;;12627030;28;20457;-36
2024/03/27 20:40:12;;;;;;;13.35;7.45;;;9.80;99.90;;;;;;12633038;28;20454;-35
2024/03/27 20:46:13;;;;;;;15.85;9.55;;;9.80;99.90;;;;;;12640740;28;20411;-36
2024/03/27 20:52:14;;;;;;;15.98;8.63;;;9.70;99.90;;;;;;12635136;28;20049;-36
2024/03/27 20:58:16;;;;;;;15.18;8.38;;;9.60;99.90;;;;;;12639238;28;20503;-35
2024/03/27 21:04:17;;;;;;;17.00;9.23;;;9.50;99.90;;;;;;12646575;28;20056;-36
2024/03/27 21:10:21;;;;;;;16.15;8.43;;;9.50;99.90;;;;;;12647995;28;20119;-36
2024/03/27 21:16:22;;;;;;;15.55;9.25;;;9.30;99.90;;;;;;12640533;28;20487;-36
2024/03/27 21:22:23;;;;;;;16.70;8.75;;;9.10;99.90;;;;;;12647378;28;20160;-36
2024/03/27 21:28:24;;;;;;;17.10;8.75;;;9.20;99.90;;;;;;12632697;28;20093;-36
2024/03/27 21:34:24;;;;;;;19.15;10.18;;;9.00;99.90;;;;;;12641845;28;20048;-35
2024/03/27 21:40:25;;;;;;;17.88;9.77;;;9.00;99.90;;;;;;12640428;28;20048;-36
2024/03/27 21:46:26;;;;;;;21.13;10.05;;;9.00;99.90;;;;;;12634684;28;20052;-36
2024/03/27 21:52:27;;;;;;;18.73;9.77;;;9.00;99.90;;;;;;12639772;28;20494;-36
2024/03/27 21:58:28;;;;;;;20.95;11.13;;;9.00;99.90;;;;;;12642806;28;20496;-36
2024/03/27 22:04:29;;;;;;;22.70;11.30;;;9.00;99.90;;;;;;12639253;28;20059;-36
2024/03/27 22:10:30;;;;;;;20.92;11.25;;;9.00;99.90;;;;;;12634351;28;20123;-36
2024/03/27 22:16:31;;;;;;;23.08;11.98;;;8.90;99.90;;;;;;12631709;28;20075;-35
2024/03/27 22:22:32;;;;;;;21.05;11.02;;;8.80;99.90;;;;;;12645234;28;20064;-36
2024/03/27 22:28:33;;;;;;;19.42;10.52;;;8.70;99.90;;;;;;12633108;28;20047;-36
2024/03/27 22:34:34;;;;;;;20.27;11.00;;;8.60;99.90;;;;;;12629051;28;20062;-35
2024/03/27 22:40:35;;;;;;;21.98;11.30;;;8.70;99.90;;;;;;12644513;28;20124;-36
2024/03/27 22:46:35;;;;;;;24.48;11.48;;;8.70;99.90;;;;;;12650580;28;20050;-36
2024/03/27 22:52:36;;;;;;;24.10;12.20;;;8.70;99.90;;;;;;12651746;28;20050;-36
2024/03/27 22:58:38;;;;;;;23.83;12.60;;;8.50;99.90;;;;;;12633963;28;20495;-35
2024/03/27 23:04:38;;;;;;;21.17;10.95;;;8.50;99.90;;;;;;12614626;28;20055;-35
2024/03/27 23:10:39;;;;;;;21.85;11.23;;;8.40;99.90;;;;;;12628277;28;20052;-36
2024/03/27 23:16:40;;;;;;;26.30;12.52;;;8.40;99.90;;;;;;12614604;28;20063;-36
2024/03/27 23:22:41;;;;;;;24.48;12.73;;;8.50;99.90;;;;;;12622161;28;20056;-36
2024/03/27 23:28:42;;;;;;;21.98;10.75;;;8.40;99.90;;;;;;12641342;28;20090;-35
2024/03/27 23:34:43;;;;;;;23.05;10.73;;;8.30;99.90;;;;;;12618514;28;20044;-35
2024/03/27 23:40:44;;;;;;;18.70;9.98;;;8.10;99.90;;;;;;12620533;28;20075;-35
2024/03/27 23:46:45;;;;;;;19.85;9.50;;;8.10;99.90;;;;;;12634006;28;20088;-35
2024/03/27 23:52:46;;;;;;;22.80;10.85;;;8.20;99.90;;;;;;12644627;28;20109;-36
2024/03/27 23:58:47;;;;;;;17.15;8.65;;;8.20;99.90;;;;;;12617280;28;20055;-36
